createdAt,value
2019-02-11T00:00:33.233Z,60.50
2019-02-11T00:03:01.454Z,60.60
2019-02-11T00:05:29.622Z,60.70
2019-02-11T00:07:58.831Z,60.80
2019-02-11T00:10:26.878Z,60.80
2019-02-11T00:12:54.848Z,60.60
2019-02-11T00:15:24.607Z,60.60
2019-02-11T00:17:54.787Z,60.60
2019-02-11T00:20:22.605Z,60.60
2019-02-11T00:22:59.437Z,60.60
2019-02-11T00:25:27.569Z,60.60
2019-02-11T00:27:56.509Z,60.40
2019-02-11T00:32:56.234Z,60.40
2019-02-11T00:35:23.925Z,60.40
2019-02-11T00:37:51.730Z,60.30
2019-02-11T00:40:19.549Z,60.30
2019-02-11T00:42:48.020Z,60.30
2019-02-11T00:45:20.578Z,60.30
2019-02-11T00:47:48.563Z,60.40
2019-02-11T00:50:17.489Z,60.30
2019-02-11T00:52:45.480Z,60.10
2019-02-11T00:55:13.276Z,60.20
2019-02-11T00:57:41.807Z,60.30
2019-02-11T01:00:16.896Z,60.30
2019-02-11T01:02:44.759Z,60.20
2019-02-11T01:05:12.678Z,60.30
2019-02-11T01:07:40.769Z,60.20
2019-02-11T01:10:11.543Z,60.40
2019-02-11T01:12:45.986Z,60.30
2019-02-11T01:15:14.320Z,60.50
2019-02-11T01:17:45.125Z,60.40
2019-02-11T01:20:13.055Z,60.40
2019-02-11T01:22:41.193Z,60.60
2019-02-11T01:25:09.789Z,60.60
2019-02-11T01:27:38.045Z,60.50
2019-02-11T01:30:08.940Z,60.60
2019-02-11T01:32:37.314Z,60.70
2019-02-11T01:35:05.487Z,60.70
2019-02-11T01:37:33.608Z,60.80
2019-02-11T01:40:01.961Z,61.00
2019-02-11T01:42:29.744Z,61.00
2019-02-11T01:44:58.052Z,61.10
2019-02-11T01:47:26.009Z,61.10
2019-02-11T01:49:54.423Z,61.50
2019-02-11T01:52:23.770Z,61.70
2019-02-11T01:54:51.519Z,62.00
2019-02-11T01:57:19.689Z,62.30
2019-02-11T01:59:47.697Z,62.40
2019-02-11T02:02:16.983Z,62.90
2019-02-11T02:04:44.901Z,63.10
2019-02-11T02:07:13.813Z,64.00
2019-02-11T02:09:49.804Z,65.20
2019-02-11T02:12:24.652Z,66.20
2019-02-11T02:14:53.318Z,66.70
2019-02-11T02:17:21.574Z,67.90
2019-02-11T02:20:00.321Z,70.20
2019-02-11T02:22:29.111Z,71.10
2019-02-11T02:24:57.294Z,71.20
2019-02-11T02:27:25.858Z,70.90
2019-02-11T02:30:03.858Z,71.90
2019-02-11T02:32:37.259Z,72.70
2019-02-11T02:35:13.552Z,73.90
2019-02-11T02:43:18.458Z,75.90
2019-02-11T02:49:30.254Z,77.70
2019-02-11T02:52:28.827Z,78.90
2019-02-11T02:55:27.717Z,79.90
2019-02-11T03:09:18.764Z,83.40
2019-02-11T03:12:52.473Z,83.80
2019-02-11T03:23:38.443Z,85.20
2019-02-11T03:26:18.604Z,86.10
2019-02-11T03:29:00.178Z,86.60
2019-02-11T03:32:16.094Z,86.90
2019-02-11T03:35:08.221Z,87.10
2019-02-11T03:38:07.278Z,87.50
2019-02-11T03:40:46.309Z,87.70
2019-02-11T03:43:30.945Z,87.80
2019-02-11T03:50:28.343Z,87.90
2019-02-11T03:53:53.576Z,88.10
2019-02-11T03:56:29.069Z,88.10
2019-02-11T03:59:13.136Z,88.00
2019-02-11T04:11:43.512Z,88.00
2019-02-11T04:14:25.248Z,87.90
2019-02-11T04:17:06.384Z,87.80
2019-02-11T04:22:49.723Z,87.70
2019-02-11T04:25:27.447Z,87.70
2019-02-11T04:28:06.247Z,87.60
2019-02-11T04:30:35.856Z,87.70
2019-02-11T04:33:16.770Z,87.60
2019-02-11T04:36:30.765Z,87.50
2019-02-11T04:39:05.541Z,87.60
2019-02-11T04:41:42.248Z,87.60
2019-02-11T04:44:21.602Z,87.40
2019-02-11T04:46:51.541Z,87.50
2019-02-11T04:49:27.034Z,87.40
2019-02-11T04:51:56.321Z,87.40
2019-02-11T04:54:25.040Z,87.40
2019-02-11T04:56:56.218Z,87.40
2019-02-11T04:59:31.494Z,87.30
2019-02-11T05:10:15.914Z,87.30
2019-02-11T05:12:48.739Z,87.50
2019-02-11T05:15:21.022Z,87.30
2019-02-11T05:17:49.687Z,87.10
2019-02-11T05:20:17.794Z,87.30
2019-02-11T05:28:02.905Z,87.10
2019-02-11T05:30:34.104Z,87.20
2019-02-11T05:33:10.285Z,87.00
2019-02-11T05:35:41.253Z,87.10
2019-02-11T05:38:09.780Z,87.10
2019-02-11T05:40:37.662Z,86.80
2019-02-11T05:43:05.413Z,86.70
2019-02-11T05:45:33.528Z,86.80
2019-02-11T05:48:01.185Z,86.70
2019-02-11T05:50:29.239Z,86.70
2019-02-11T05:52:57.049Z,86.50
2019-02-11T05:55:24.913Z,86.70
2019-02-11T05:57:52.789Z,86.70
2019-02-11T06:00:20.459Z,86.40
2019-02-11T06:02:48.196Z,86.10
2019-02-11T06:05:15.827Z,86.40
2019-02-11T06:07:43.503Z,86.10
2019-02-11T06:10:11.155Z,86.10
2019-02-11T06:12:38.932Z,85.70
2019-02-11T06:15:06.581Z,85.50
2019-02-11T06:17:34.184Z,85.20
2019-02-11T06:20:01.861Z,85.10
2019-02-11T06:22:29.516Z,85.00
2019-02-11T06:24:57.245Z,84.60
2019-02-11T06:27:24.953Z,84.70
2019-02-11T06:29:52.622Z,84.70
2019-02-11T06:32:20.256Z,85.00
2019-02-11T06:34:47.910Z,84.70
2019-02-11T06:37:15.790Z,85.00
2019-02-11T06:39:43.457Z,85.10
2019-02-11T06:42:11.001Z,85.30
2019-02-11T06:44:38.777Z,84.80
2019-02-11T06:47:06.454Z,84.60
2019-02-11T06:49:34.211Z,83.70
2019-02-11T06:52:02.988Z,83.60
2019-02-11T06:54:31.089Z,83.50
2019-02-11T06:57:00.785Z,83.70
2019-02-11T06:59:28.435Z,83.00
2019-02-11T07:01:56.501Z,83.50
2019-02-11T07:04:24.157Z,83.50
2019-02-11T07:06:51.934Z,83.60
2019-02-11T07:09:19.602Z,83.30
2019-02-11T07:11:47.803Z,82.20
2019-02-11T07:14:15.509Z,81.30
2019-02-11T07:16:43.284Z,79.90
2019-02-11T07:19:11.268Z,78.80
2019-02-11T07:21:38.966Z,78.10
2019-02-11T07:24:06.664Z,77.80
2019-02-11T07:26:34.469Z,77.50
2019-02-11T07:29:02.242Z,77.40
2019-02-11T07:31:30.189Z,76.60
2019-02-11T07:33:57.835Z,76.00
2019-02-11T07:36:25.522Z,75.70
2019-02-11T07:38:53.253Z,75.70
2019-02-11T07:41:24.144Z,75.20
2019-02-11T07:44:08.650Z,75.20
2019-02-11T07:46:42.877Z,74.50
2019-02-11T07:49:10.848Z,72.90
2019-02-11T07:51:42.349Z,72.70
2019-02-11T07:54:08.631Z,71.80
2019-02-11T07:56:36.386Z,71.20
2019-02-11T07:59:04.291Z,70.50
2019-02-11T08:01:32.221Z,69.90
2019-02-11T08:04:00.118Z,70.00
2019-02-11T08:06:30.622Z,70.10
2019-02-11T08:08:59.045Z,69.90
2019-02-11T08:11:27.644Z,69.50
2019-02-11T08:13:55.486Z,69.70
2019-02-11T08:16:23.279Z,68.90
2019-02-11T08:18:51.885Z,68.80
2019-02-11T08:21:20.112Z,68.80
2019-02-11T08:23:47.818Z,68.40
2019-02-11T08:26:15.597Z,68.50
2019-02-11T08:28:43.497Z,68.40
2019-02-11T08:31:11.675Z,68.10
2019-02-11T08:33:45.990Z,67.60
2019-02-11T08:36:26.592Z,67.30
2019-02-11T08:38:54.841Z,67.20
2019-02-11T08:41:22.578Z,67.00
2019-02-11T08:44:03.542Z,67.40
2019-02-11T08:46:31.401Z,66.80
2019-02-11T08:48:59.291Z,66.00
2019-02-11T08:51:27.175Z,66.20
2019-02-11T08:53:55.675Z,66.10
2019-02-11T08:56:23.336Z,66.30
2019-02-11T08:58:51.126Z,66.50
2019-02-11T09:01:18.800Z,66.30
2019-02-11T09:03:46.617Z,66.20
2019-02-11T09:06:14.561Z,65.80
2019-02-11T09:09:11.526Z,65.60
2019-02-11T09:11:39.316Z,65.20
2019-02-11T09:14:07.367Z,64.60
2019-02-11T09:16:36.849Z,63.90
2019-02-11T09:19:05.176Z,63.70
2019-02-11T09:21:37.045Z,63.80
2019-02-11T09:24:04.786Z,63.80
2019-02-11T09:26:33.009Z,63.50
2019-02-11T09:29:06.726Z,63.40
2019-02-11T09:31:35.790Z,63.30
2019-02-11T09:34:10.779Z,63.50
2019-02-11T09:36:38.788Z,63.20
2019-02-11T09:39:14.620Z,63.20
2019-02-11T09:41:42.625Z,63.30
2019-02-11T09:44:14.034Z,62.70
2019-02-11T09:46:45.902Z,62.80
2019-02-11T09:49:13.685Z,62.30
2019-02-11T09:51:48.145Z,62.30
2019-02-11T09:54:19.240Z,62.10
2019-02-11T09:56:47.538Z,62.20
2019-02-11T09:59:15.638Z,61.80
2019-02-11T10:01:43.473Z,61.60
2019-02-11T10:04:11.103Z,61.10
2019-02-11T10:06:40.023Z,61.30
2019-02-11T10:09:07.760Z,61.10
2019-02-11T10:11:35.785Z,61.00
2019-02-11T10:14:09.592Z,61.10
2019-02-11T10:16:37.419Z,60.80
2019-02-11T10:19:05.580Z,60.70
2019-02-11T10:21:33.946Z,59.50
2019-02-11T10:24:03.057Z,59.10
2019-02-11T10:26:39.825Z,59.00
2019-02-11T10:29:07.532Z,59.20
2019-02-11T10:31:35.354Z,59.20
2019-02-11T10:34:05.888Z,58.60
2019-02-11T10:36:33.746Z,58.20
2019-02-11T10:39:01.639Z,58.10
2019-02-11T10:41:29.370Z,58.80
2019-02-11T10:43:59.087Z,58.30
2019-02-11T10:46:26.742Z,58.70
2019-02-11T10:48:54.900Z,58.20
2019-02-11T10:51:22.629Z,58.40
2019-02-11T10:53:50.461Z,58.10
2019-02-11T10:56:18.472Z,57.60
2019-02-11T10:58:46.261Z,57.20
2019-02-11T11:01:13.984Z,57.60
2019-02-11T11:03:41.626Z,55.80
2019-02-11T11:06:09.484Z,55.80
2019-02-11T11:08:37.370Z,55.80
2019-02-11T11:11:05.253Z,55.60
2019-02-11T11:13:32.915Z,55.70
2019-02-11T11:16:00.940Z,55.60
2019-02-11T11:18:28.952Z,55.20
2019-02-11T11:20:56.962Z,55.30
2019-02-11T11:23:24.832Z,55.00
2019-02-11T11:25:52.701Z,54.10
2019-02-11T11:28:20.528Z,54.10
2019-02-11T11:30:48.400Z,54.40
2019-02-11T11:33:16.338Z,54.30
2019-02-11T11:35:44.159Z,54.60
2019-02-11T11:38:11.964Z,55.50
2019-02-11T11:40:40.042Z,55.10
2019-02-11T11:43:07.917Z,54.50
2019-02-11T11:45:35.867Z,54.00
2019-02-11T11:48:03.696Z,54.20
2019-02-11T11:50:31.542Z,54.40
2019-02-11T11:52:59.907Z,54.00
2019-02-11T11:55:27.814Z,53.80
2019-02-11T11:57:55.521Z,53.80
2019-02-11T12:00:24.801Z,54.00
2019-02-11T12:03:01.817Z,53.90
2019-02-11T12:05:22.319Z,53.00
2019-02-11T12:07:50.145Z,53.10
2019-02-11T12:10:17.935Z,53.50
2019-02-11T12:12:45.605Z,53.70
2019-02-11T12:15:13.486Z,54.20
2019-02-11T12:17:41.954Z,54.50
2019-02-11T12:20:10.727Z,55.10
2019-02-11T12:22:38.419Z,55.90
2019-02-11T12:25:07.912Z,56.30
2019-02-11T12:27:35.910Z,57.00
2019-02-11T12:30:03.849Z,57.10
2019-02-11T12:32:31.737Z,58.00
2019-02-11T12:34:59.369Z,59.20
2019-02-11T12:37:27.122Z,60.90
2019-02-11T12:39:54.855Z,62.00
2019-02-11T12:42:22.632Z,63.20
2019-02-11T12:44:50.359Z,66.90
2019-02-11T12:47:18.234Z,68.40
2019-02-11T12:49:45.896Z,71.10
2019-02-11T12:52:13.782Z,71.90
2019-02-11T12:54:41.591Z,72.10
2019-02-11T12:57:09.339Z,72.70
2019-02-11T12:59:37.094Z,74.30
2019-02-11T13:02:04.739Z,74.60
2019-02-11T13:04:32.411Z,74.30
2019-02-11T13:07:00.160Z,75.30
2019-02-11T13:09:28.147Z,76.10
2019-02-11T13:11:55.789Z,75.10
2019-02-11T13:14:23.625Z,72.70
2019-02-11T13:16:51.630Z,72.40
2019-02-11T13:19:19.494Z,72.40
2019-02-11T13:21:47.216Z,72.10
2019-02-11T13:24:14.994Z,72.50
2019-02-11T13:26:42.674Z,74.30
2019-02-11T13:29:10.403Z,74.70
2019-02-11T13:31:38.198Z,76.40
2019-02-11T13:34:05.959Z,74.90
2019-02-11T13:36:33.613Z,75.90
2019-02-11T13:39:01.321Z,75.50
2019-02-11T13:41:29.050Z,76.70
2019-02-11T13:43:57.192Z,76.00
2019-02-11T13:46:24.845Z,74.10
2019-02-11T13:48:52.551Z,73.10
2019-02-11T13:51:20.279Z,73.30
2019-02-11T13:53:48.066Z,72.90
2019-02-11T13:56:15.907Z,73.80
2019-02-11T13:58:43.575Z,74.20
2019-02-11T14:01:11.311Z,74.00
2019-02-11T14:03:39.164Z,73.90
2019-02-11T14:06:06.960Z,74.90
2019-02-11T14:08:34.656Z,74.70
2019-02-11T14:11:02.430Z,75.60
2019-02-11T14:13:30.314Z,74.60
2019-02-11T14:15:58.103Z,74.70
2019-02-11T14:18:25.853Z,74.70
2019-02-11T14:20:53.570Z,74.50
2019-02-11T14:23:21.498Z,75.20
2019-02-11T14:25:49.345Z,75.40
2019-02-11T14:28:17.087Z,76.60
2019-02-11T14:30:44.804Z,77.40
2019-02-11T14:33:12.648Z,77.90
2019-02-11T14:35:40.435Z,77.90
2019-02-11T14:38:08.187Z,78.40
2019-02-11T14:40:35.884Z,78.00
2019-02-11T14:43:03.679Z,78.60
2019-02-11T14:45:31.549Z,79.90
2019-02-11T14:47:59.481Z,80.40
2019-02-11T14:50:27.673Z,79.80
2019-02-11T14:52:55.321Z,79.20
2019-02-11T14:55:23.010Z,79.20
2019-02-11T14:57:50.705Z,79.00
2019-02-11T15:00:19.849Z,78.40
2019-02-11T15:02:47.577Z,78.20
2019-02-11T15:05:16.944Z,78.00
2019-02-11T15:07:47.294Z,78.30
2019-02-11T15:10:15.921Z,79.00
2019-02-11T15:12:53.865Z,78.70
2019-02-11T15:18:34.160Z,79.30
2019-02-11T15:21:15.425Z,79.80
2019-02-11T15:23:43.786Z,79.70
2019-02-11T15:26:17.292Z,78.30
2019-02-11T15:28:51.175Z,78.10
2019-02-11T15:31:29.421Z,78.50
2019-02-11T15:34:00.050Z,78.30
2019-02-11T15:36:30.543Z,78.20
2019-02-11T15:38:58.922Z,78.10
2019-02-11T15:41:39.081Z,78.00
2019-02-11T15:44:18.459Z,78.10
2019-02-11T15:46:47.228Z,78.30
2019-02-11T15:49:21.579Z,78.90
2019-02-11T15:51:50.108Z,79.10
2019-02-11T15:54:34.698Z,78.50
2019-02-11T15:57:09.359Z,78.10
2019-02-11T15:59:51.404Z,76.60
2019-02-11T16:02:22.441Z,76.10
2019-02-11T16:05:15.998Z,75.60
2019-02-11T16:11:20.515Z,76.20
2019-02-11T16:14:07.398Z,75.50
2019-02-11T16:16:38.165Z,75.30
2019-02-11T16:19:06.519Z,75.40
2019-02-11T16:21:35.500Z,75.90
2019-02-11T16:24:09.641Z,75.40
2019-02-11T16:26:44.404Z,75.40
2019-02-11T16:29:19.684Z,75.10
2019-02-11T16:32:00.713Z,75.50
2019-02-11T16:34:53.093Z,75.20
2019-02-11T16:37:24.229Z,75.20
2019-02-11T16:40:03.956Z,74.60
2019-02-11T16:42:33.932Z,74.50
2019-02-11T16:45:02.587Z,74.70
2019-02-11T16:47:31.957Z,74.60
2019-02-11T16:50:00.837Z,74.30
2019-02-11T16:52:29.073Z,74.90
2019-02-11T16:55:06.504Z,74.40
2019-02-11T16:57:44.945Z,74.90
2019-02-11T17:00:20.514Z,74.20
2019-02-11T17:02:48.991Z,74.30
2019-02-11T17:05:40.097Z,73.50
2019-02-11T17:08:11.691Z,73.00
2019-02-11T17:10:46.474Z,73.40
2019-02-11T17:13:16.150Z,73.60
2019-02-11T17:15:47.993Z,72.70
2019-02-11T17:18:16.063Z,72.30
2019-02-11T17:20:53.422Z,72.20
2019-02-11T17:23:54.424Z,72.90
2019-02-11T17:27:03.189Z,73.50
2019-02-11T17:33:01.660Z,76.70
2019-02-11T17:35:53.357Z,76.40
2019-02-11T17:41:44.096Z,78.40
2019-02-11T17:44:21.492Z,78.80
2019-02-11T17:47:23.932Z,78.50
2019-02-11T17:50:16.741Z,78.60
2019-02-11T17:52:48.877Z,76.90
2019-02-11T17:55:28.908Z,77.20
2019-02-11T17:58:29.889Z,77.20
2019-02-11T18:01:02.468Z,76.80
2019-02-11T18:03:31.146Z,77.00
2019-02-11T18:06:00.765Z,77.00
2019-02-11T18:08:36.667Z,76.40
2019-02-11T18:11:29.874Z,75.80
2019-02-11T18:13:58.655Z,76.40
2019-02-11T18:16:29.147Z,76.40
2019-02-11T18:19:01.543Z,77.20
2019-02-11T18:21:32.910Z,77.50
2019-02-11T18:24:09.877Z,78.30
2019-02-11T18:26:44.984Z,77.70
2019-02-11T18:29:16.805Z,76.80
2019-02-11T18:31:46.754Z,76.20
2019-02-11T18:34:27.118Z,75.90
2019-02-11T18:48:06.564Z,73.50
2019-02-11T18:50:40.038Z,73.90
2019-02-11T18:53:15.769Z,74.10
2019-02-11T18:55:56.887Z,73.70
2019-02-11T18:58:46.307Z,74.30
2019-02-11T19:01:29.299Z,74.10
2019-02-11T19:04:02.649Z,74.60
2019-02-11T19:06:48.298Z,73.70
2019-02-11T19:09:35.695Z,74.60
2019-02-11T19:12:08.118Z,74.80
2019-02-11T19:14:39.699Z,74.10
2019-02-11T19:17:33.188Z,74.10
2019-02-11T19:25:43.967Z,73.30
2019-02-11T19:31:08.775Z,72.60
2019-02-11T19:34:03.715Z,73.00
2019-02-11T19:39:46.039Z,73.10
2019-02-11T19:42:17.662Z,73.40
2019-02-11T19:44:57.859Z,74.00
2019-02-11T19:47:30.072Z,74.00
2019-02-11T19:56:02.922Z,74.00
2019-02-11T19:58:33.340Z,73.70
2019-02-11T20:01:31.386Z,73.30
2019-02-11T21:26:26.342Z,84.50
2019-02-11T21:46:16.907Z,84.50
2019-02-11T21:48:48.636Z,84.90
2019-02-11T21:51:33.806Z,85.40
2019-02-11T21:56:59.147Z,85.90
2019-02-11T22:02:22.297Z,86.10
2019-02-11T22:08:14.565Z,86.20
2019-02-11T22:11:16.924Z,86.30
2019-02-11T22:13:53.187Z,86.40
2019-02-11T22:16:45.549Z,86.20
2019-02-11T22:19:30.790Z,86.10
2019-02-11T22:22:37.842Z,86.20
2019-02-11T22:26:01.063Z,86.10
2019-02-11T22:32:03.798Z,86.20
2019-02-11T22:34:32.499Z,86.30
2019-02-11T22:37:00.704Z,86.40
2019-02-11T22:39:46.735Z,86.30
2019-02-11T22:42:30.472Z,86.20
2019-02-11T22:45:19.373Z,86.20
2019-02-11T22:52:53.336Z,85.80
2019-02-11T22:58:35.720Z,85.80
2019-02-11T23:01:19.246Z,86.00
2019-02-11T23:03:51.635Z,86.00
2019-02-11T23:06:24.770Z,86.00
2019-02-11T23:08:56.870Z,85.80
2019-02-11T23:11:25.356Z,85.80
2019-02-11T23:13:56.094Z,85.90
2019-02-11T23:16:24.297Z,85.70
2019-02-11T23:18:56.849Z,85.60
2019-02-11T23:21:36.447Z,85.80
2019-02-11T23:24:08.153Z,85.60
2019-02-11T23:26:39.492Z,85.30
2019-02-11T23:29:31.504Z,85.30
2019-02-11T23:34:54.374Z,85.30
2019-02-11T23:37:26.804Z,85.10
2019-02-11T23:40:03.132Z,84.90
2019-02-11T23:42:35.528Z,85.10
2019-02-11T23:45:04.621Z,84.70
2019-02-11T23:47:39.714Z,84.90
2019-02-11T23:50:11.812Z,85.00
2019-02-11T23:52:49.833Z,84.90
2019-02-11T23:55:18.002Z,84.80
2019-02-11T23:57:56.776Z,84.60
